Time;durP1;ratioP1;P1;durP2;ratioP2;P2;SDS_P1;SDS_P2;PMS_P1;PMS_P2;Temp;Humidity;BMP_temperature;BMP_pressure;BME280_temperature;BME280_humidity;BME280_pressure;Samples;Min_cycle;Max_cycle;Signal;HPM_P1;HPM_P2
2022/12/24 00:00:04;;;;;;;21.02;4.13;;;12.00;99.90;;;;;;4975940;28;20204;-79
2022/12/24 00:02:30;;;;;;;36.97;5.28;;;12.00;99.90;;;;;;4975901;28;20204;-80
2022/12/24 00:04:55;;;;;;;19.20;4.32;;;12.10;99.90;;;;;;4976174;28;20521;-81
2022/12/24 00:07:21;;;;;;;39.30;5.70;;;12.20;99.90;;;;;;4974695;28;20185;-79
2022/12/24 00:09:46;;;;;;;21.58;4.38;;;12.10;99.90;;;;;;4975915;28;20174;-79
2022/12/24 00:12:12;;;;;;;24.40;5.32;;;12.10;99.90;;;;;;4976182;28;20617;-79
2022/12/24 00:14:37;;;;;;;27.45;5.25;;;12.10;99.90;;;;;;4980296;28;20177;-78
2022/12/24 00:17:03;;;;;;;27.83;4.55;;;11.90;99.90;;;;;;4975892;28;20650;-80
2022/12/24 00:19:29;;;;;;;36.22;4.95;;;11.90;99.90;;;;;;4991164;28;20213;-79
2022/12/24 00:21:56;;;;;;;29.02;5.47;;;11.90;99.90;;;;;;4982749;28;20217;-77
2022/12/24 00:24:21;;;;;;;24.98;4.45;;;11.80;99.90;;;;;;4982376;28;20173;-77
2022/12/24 00:26:47;;;;;;;23.05;4.10;;;11.90;99.90;;;;;;4983951;28;20178;-78
2022/12/24 00:29:12;;;;;;;29.73;4.82;;;11.80;99.90;;;;;;4979880;28;20184;-77
2022/12/24 00:31:38;;;;;;;21.17;4.22;;;11.90;99.90;;;;;;4979076;28;20264;-79
2022/12/24 00:34:07;;;;;;;36.83;5.45;;;11.90;99.90;;;;;;4986077;28;20173;-79
2022/12/24 00:36:33;;;;;;;33.00;5.10;;;11.90;99.90;;;;;;4976528;28;20717;-79
2022/12/24 00:38:58;;;;;;;33.45;4.50;;;11.90;99.90;;;;;;4979302;28;20240;-85
2022/12/24 00:41:30;;;;;;;26.02;3.90;;;11.80;99.90;;;;;;4977847;28;20170;-79
2022/12/24 00:43:57;;;;;;;23.60;4.70;;;11.90;99.90;;;;;;4978273;28;20631;-79
2022/12/24 00:46:25;;;;;;;25.55;4.60;;;11.70;99.90;;;;;;4975603;28;20178;-79
2022/12/24 00:48:51;;;;;;;31.27;5.05;;;11.70;99.90;;;;;;4975820;28;20535;-79
2022/12/24 00:51:19;;;;;;;24.70;4.57;;;11.80;99.90;;;;;;4979906;28;20174;-77
2022/12/24 00:53:45;;;;;;;29.80;4.50;;;11.80;99.90;;;;;;4976676;28;20225;-79
2022/12/24 00:56:11;;;;;;;29.08;4.57;;;11.70;99.90;;;;;;4977633;28;20569;-79
2022/12/24 00:58:36;;;;;;;22.92;4.60;;;11.70;99.90;;;;;;4977469;28;20680;-81
2022/12/24 01:01:03;;;;;;;30.45;5.07;;;11.60;99.90;;;;;;4984544;28;20165;-78
2022/12/24 01:03:34;;;;;;;22.33;4.43;;;11.70;99.90;;;;;;4985869;28;20277;-76
2022/12/24 01:06:05;;;;;;;29.60;4.35;;;11.70;99.90;;;;;;4988486;28;20170;-78
2022/12/24 01:08:31;;;;;;;27.42;5.03;;;11.60;99.90;;;;;;4984167;28;20165;-79
2022/12/24 01:10:57;;;;;;;18.08;3.92;;;11.60;99.90;;;;;;4982696;28;20161;-79
2022/12/24 01:13:23;;;;;;;20.35;3.67;;;11.50;99.90;;;;;;4982824;28;20200;-78
2022/12/24 01:15:49;;;;;;;22.10;4.07;;;11.60;99.90;;;;;;4985597;28;20182;-80
2022/12/24 01:18:15;;;;;;;23.90;4.20;;;11.60;99.90;;;;;;4982441;28;20209;-80
2022/12/24 01:20:41;;;;;;;19.63;4.05;;;11.50;99.90;;;;;;4984329;28;20615;-78
2022/12/24 01:23:07;;;;;;;19.30;4.57;;;11.60;99.90;;;;;;4981096;28;20201;-78
2022/12/24 01:25:32;;;;;;;32.88;4.57;;;11.60;99.90;;;;;;4980654;28;20178;-78
2022/12/24 01:27:58;;;;;;;14.73;3.42;;;11.60;99.90;;;;;;4976181;28;20664;-80
2022/12/24 01:30:24;;;;;;;21.00;3.72;;;11.50;99.90;;;;;;4963156;28;20650;-79
2022/12/24 01:32:49;;;;;;;21.45;4.55;;;11.50;99.90;;;;;;4978435;28;20659;-80
2022/12/24 01:35:15;;;;;;;26.33;3.20;;;11.60;99.90;;;;;;4976383;28;20718;-79
2022/12/24 01:37:41;;;;;;;15.65;3.47;;;11.60;99.90;;;;;;4992737;28;20169;-79
2022/12/24 01:45:51;;;;;;;7.35;2.25;;;11.30;99.90;;;;;;4977102;28;20237;-79
2022/12/24 01:48:29;;;;;;;10.15;2.55;;;11.30;99.90;;;;;;4977008;28;20174;-80
2022/12/24 01:51:11;;;;;;;17.25;3.25;;;11.30;99.90;;;;;;4977874;28;20538;-79
2022/12/24 01:53:38;;;;;;;10.52;2.83;;;11.50;99.90;;;;;;4979067;28;20606;-78
2022/12/24 01:56:05;;;;;;;17.20;3.85;;;11.60;99.90;;;;;;4977384;28;20189;-79
2022/12/24 01:58:33;;;;;;;24.00;4.50;;;11.70;99.90;;;;;;4978825;28;20277;-79
2022/12/24 02:00:59;;;;;;;30.27;4.43;;;11.80;99.90;;;;;;4978180;28;20666;-79
2022/12/24 02:03:25;;;;;;;23.45;4.68;;;11.70;99.90;;;;;;4978110;28;20220;-79
2022/12/24 02:05:54;;;;;;;31.13;4.32;;;11.70;99.90;;;;;;4978022;28;20209;-79
2022/12/24 02:08:20;;;;;;;26.05;4.63;;;11.60;99.90;;;;;;4976124;28;20166;-79
2022/12/24 02:10:47;;;;;;;17.65;3.88;;;11.80;99.90;;;;;;4972518;28;20635;-80
2022/12/24 02:13:16;;;;;;;22.20;4.05;;;11.60;99.90;;;;;;4973497;28;20185;-81
2022/12/24 02:16:03;;;;;;;27.00;5.10;;;11.70;99.90;;;;;;4973709;28;20240;-80
2022/12/24 02:18:55;;;;;;;31.67;6.15;;;11.70;99.90;;;;;;4973559;28;20217;-81
2022/12/24 02:21:44;;;;;;;29.35;4.57;;;11.60;99.90;;;;;;4973436;28;20227;-79
2022/12/24 02:24:38;;;;;;;22.42;3.88;;;11.60;99.90;;;;;;4973392;28;20166;-81
2022/12/24 02:27:20;;;;;;;26.40;4.63;;;11.70;99.90;;;;;;4973348;28;20174;-84
2022/12/24 02:30:06;;;;;;;29.30;5.30;;;11.70;99.90;;;;;;4973344;28;20166;-81
2022/12/24 02:32:43;;;;;;;27.67;4.70;;;11.60;99.90;;;;;;4973388;28;20190;-79
2022/12/24 02:35:22;;;;;;;23.58;5.03;;;11.60;99.90;;;;;;4973640;28;20173;-79
2022/12/24 02:37:59;;;;;;;23.67;4.75;;;11.60;99.90;;;;;;4972020;28;20256;-81
2022/12/24 02:40:30;;;;;;;26.48;5.03;;;11.70;99.90;;;;;;4973374;28;20239;-80
2022/12/24 02:43:01;;;;;;;23.75;4.05;;;11.60;99.90;;;;;;4973459;28;20673;-80
2022/12/24 02:45:33;;;;;;;21.48;4.35;;;11.60;99.90;;;;;;4972971;28;20196;-82
2022/12/24 02:47:59;;;;;;;28.85;4.05;;;11.70;99.90;;;;;;4973689;28;20529;-81
2022/12/24 02:50:25;;;;;;;15.73;3.38;;;11.80;99.90;;;;;;4974022;28;20641;-84
2022/12/24 02:52:51;;;;;;;14.07;4.22;;;11.70;99.90;;;;;;4973648;28;20193;-80
2022/12/24 02:55:35;;;;;;;16.52;3.67;;;11.70;99.90;;;;;;4973332;28;20178;-81
2022/12/24 02:58:19;;;;;;;16.50;3.22;;;11.70;99.90;;;;;;4971391;28;20209;-82
2022/12/24 03:00:51;;;;;;;12.05;3.72;;;11.60;99.90;;;;;;4972702;28;20174;-80
2022/12/24 03:03:25;;;;;;;20.17;4.03;;;11.60;99.90;;;;;;4972496;28;20265;-80
2022/12/24 03:06:04;;;;;;;26.15;4.43;;;11.70;99.90;;;;;;4973022;28;20169;-80
2022/12/24 03:08:53;;;;;;;16.65;4.18;;;11.80;99.90;;;;;;4972906;28;20221;-82
2022/12/24 03:11:19;;;;;;;25.85;5.60;;;11.60;99.90;;;;;;4971201;28;20170;-80
2022/12/24 03:13:47;;;;;;;20.38;3.63;;;11.50;99.90;;;;;;4972880;28;20198;-84
2022/12/24 03:16:21;;;;;;;13.77;3.45;;;11.50;99.90;;;;;;4973031;28;20209;-80
2022/12/24 03:18:49;;;;;;;20.05;4.00;;;11.50;99.90;;;;;;4973711;28;20201;-86
2022/12/24 03:21:27;;;;;;;24.20;4.80;;;11.40;99.90;;;;;;4976179;28;20249;-83
2022/12/24 03:23:54;;;;;;;22.55;4.93;;;11.30;99.90;;;;;;4976196;28;20166;-84
2022/12/24 03:26:21;;;;;;;20.52;4.40;;;11.30;99.90;;;;;;4976046;28;20200;-81
2022/12/24 03:28:48;;;;;;;24.73;4.28;;;11.40;99.90;;;;;;4975951;28;20174;-80
2022/12/24 03:31:14;;;;;;;14.88;3.85;;;11.50;99.90;;;;;;4974783;28;20253;-85
2022/12/24 03:33:40;;;;;;;19.48;3.50;;;11.50;99.90;;;;;;4975909;28;20186;-84
2022/12/24 03:36:07;;;;;;;19.60;4.07;;;11.50;99.90;;;;;;4975871;28;20209;-85
2022/12/24 03:38:33;;;;;;;15.52;4.60;;;11.50;99.90;;;;;;4975603;28;20253;-84
2022/12/24 03:41:00;;;;;;;27.13;5.35;;;11.60;99.90;;;;;;4975809;28;20225;-85
2022/12/24 03:43:25;;;;;;;15.38;3.75;;;11.60;99.90;;;;;;4975810;28;20185;-81
2022/12/24 03:45:51;;;;;;;29.23;4.85;;;11.50;99.90;;;;;;4975964;28;20252;-81
2022/12/24 03:48:16;;;;;;;24.13;4.75;;;11.50;99.90;;;;;;4975764;28;20181;-80
2022/12/24 03:50:42;;;;;;;26.10;4.30;;;11.60;99.90;;;;;;4975773;28;20174;-80
2022/12/24 03:53:07;;;;;;;26.35;5.65;;;11.60;99.90;;;;;;4975521;28;20268;-80
2022/12/24 03:55:33;;;;;;;23.75;5.03;;;11.50;99.90;;;;;;4953468;28;1089328;-79
2022/12/24 03:57:59;;;;;;;38.05;4.85;;;11.40;99.90;;;;;;4991524;28;20197;-79
2022/12/24 04:00:24;;;;;;;22.05;4.32;;;11.40;99.90;;;;;;4976695;28;20187;-80
2022/12/24 04:02:50;;;;;;;31.25;5.35;;;11.40;99.90;;;;;;4976674;28;20268;-80
2022/12/24 04:05:18;;;;;;;20.25;4.45;;;11.40;99.90;;;;;;4976564;28;20650;-80
2022/12/24 04:07:44;;;;;;;20.73;4.60;;;11.50;99.90;;;;;;4976521;28;20162;-83
2022/12/24 04:10:11;;;;;;;37.25;4.75;;;11.50;99.90;;;;;;4976035;28;20178;-83
2022/12/24 04:12:37;;;;;;;23.27;4.10;;;11.40;99.90;;;;;;4975064;28;20248;-82
2022/12/24 04:15:04;;;;;;;21.95;3.97;;;11.50;99.90;;;;;;4976597;28;20719;-85
2022/12/24 04:17:29;;;;;;;31.73;3.97;;;11.50;99.90;;;;;;4976078;28;20205;-86
2022/12/24 04:19:55;;;;;;;34.88;4.32;;;11.60;99.90;;;;;;4976227;28;20264;-85
2022/12/24 04:22:21;;;;;;;25.67;3.70;;;11.50;99.90;;;;;;4976269;28;20190;-81
2022/12/24 04:24:46;;;;;;;19.52;4.68;;;11.50;99.90;;;;;;4976217;28;20651;-79
2022/12/24 04:27:15;;;;;;;26.52;4.07;;;11.50;99.90;;;;;;4976129;28;20174;-81
2022/12/24 04:29:41;;;;;;;27.38;5.75;;;11.50;99.90;;;;;;4975183;28;20196;-79
2022/12/24 04:32:09;;;;;;;31.10;4.05;;;11.60;99.90;;;;;;4975258;28;20229;-79
2022/12/24 04:34:35;;;;;;;25.52;3.90;;;11.60;99.90;;;;;;4975766;28;20176;-80
2022/12/24 04:37:01;;;;;;;33.33;5.18;;;11.60;99.90;;;;;;4975848;28;20174;-82
2022/12/24 04:39:26;;;;;;;39.80;5.53;;;11.70;99.90;;;;;;4975684;28;20210;-81
2022/12/24 04:41:52;;;;;;;24.58;4.35;;;11.70;99.90;;;;;;4974244;28;20647;-81
2022/12/24 04:44:17;;;;;;;25.65;4.93;;;11.70;99.90;;;;;;4975507;28;20178;-82
2022/12/24 04:46:43;;;;;;;26.38;4.22;;;11.70;99.90;;;;;;4975710;28;20252;-85
2022/12/24 04:49:10;;;;;;;29.02;3.97;;;11.70;99.90;;;;;;4975632;28;20170;-83
2022/12/24 04:51:36;;;;;;;19.50;4.93;;;11.60;99.90;;;;;;4990393;28;20534;-85
2022/12/24 04:54:01;;;;;;;26.30;4.03;;;11.60;99.90;;;;;;4974313;28;20265;-85
2022/12/24 04:56:30;;;;;;;26.50;4.78;;;11.40;99.90;;;;;;4974315;28;20189;-83
2022/12/24 04:58:55;;;;;;;32.30;4.68;;;11.30;99.90;;;;;;4975330;28;20608;-83
2022/12/24 05:01:26;;;;;;;18.02;4.07;;;11.30;99.90;;;;;;4975365;28;20225;-81
2022/12/24 05:03:52;;;;;;;36.25;5.65;;;11.30;99.90;;;;;;4975548;28;20202;-80
2022/12/24 05:06:21;;;;;;;39.25;5.47;;;11.20;99.90;;;;;;4975322;28;20682;-79
2022/12/24 05:08:47;;;;;;;25.77;4.63;;;11.10;99.90;;;;;;4975276;28;20201;-80
2022/12/24 05:11:14;;;;;;;24.73;5.00;;;11.10;99.90;;;;;;4975114;28;20173;-81
2022/12/24 05:13:41;;;;;;;26.20;4.38;;;11.10;99.90;;;;;;4974922;28;20201;-86
2022/12/24 05:16:07;;;;;;;24.80;4.53;;;11.20;99.90;;;;;;4975150;28;20170;-80
2022/12/24 05:18:33;;;;;;;32.50;5.47;;;11.10;99.90;;;;;;4975329;28;20654;-81
2022/12/24 05:20:59;;;;;;;29.70;4.53;;;11.00;99.90;;;;;;4974859;28;20205;-80
2022/12/24 05:26:32;;;;;;;36.78;4.55;;;11.10;99.90;;;;;;4975139;28;20552;-84
2022/12/24 05:28:59;;;;;;;21.10;4.03;;;11.10;99.90;;;;;;4968276;28;20214;-84
2022/12/24 05:31:26;;;;;;;23.60;5.35;;;11.30;99.90;;;;;;4974553;28;20198;-81
2022/12/24 05:33:53;;;;;;;31.23;4.50;;;11.40;99.90;;;;;;4974780;28;20201;-80
2022/12/24 05:36:19;;;;;;;23.92;5.20;;;11.40;99.90;;;;;;4974564;28;20262;-81
2022/12/24 05:38:45;;;;;;;19.42;3.95;;;11.40;99.90;;;;;;4974552;28;20292;-80
2022/12/24 05:41:10;;;;;;;26.65;5.40;;;11.40;99.90;;;;;;4974339;28;20174;-79
2022/12/24 05:43:37;;;;;;;35.80;5.20;;;11.20;99.90;;;;;;4974427;28;20596;-81
2022/12/24 05:46:06;;;;;;;21.35;3.70;;;11.30;99.90;;;;;;4974791;28;20170;-81
2022/12/24 05:48:32;;;;;;;25.90;4.90;;;11.40;99.90;;;;;;4974553;28;20631;-81
2022/12/24 05:50:58;;;;;;;31.83;4.57;;;11.40;99.90;;;;;;4974256;28;20649;-84
2022/12/24 05:53:24;;;;;;;33.50;5.03;;;11.50;99.90;;;;;;4974096;28;20194;-80
2022/12/24 05:55:49;;;;;;;15.05;3.70;;;11.50;99.90;;;;;;4972777;28;20181;-85
2022/12/24 05:58:15;;;;;;;25.33;4.63;;;11.50;99.90;;;;;;4974610;28;20210;-80
2022/12/24 06:00:41;;;;;;;22.33;4.72;;;11.60;99.90;;;;;;4974262;28;20232;-80
2022/12/24 06:03:07;;;;;;;22.45;4.03;;;11.60;99.90;;;;;;4974029;28;20240;-80
2022/12/24 06:05:32;;;;;;;25.73;4.55;;;11.60;99.90;;;;;;4974384;28;20631;-80
2022/12/24 06:07:58;;;;;;;26.48;5.95;;;11.60;99.90;;;;;;4974255;28;20717;-79
2022/12/24 06:10:24;;;;;;;29.17;4.38;;;11.60;99.90;;;;;;4989116;28;20177;-79
2022/12/24 06:12:49;;;;;;;30.70;4.93;;;11.70;99.90;;;;;;4974221;28;20193;-79
2022/12/24 06:15:15;;;;;;;24.80;4.13;;;11.70;99.90;;;;;;4974174;28;20158;-79
2022/12/24 06:17:40;;;;;;;22.08;4.07;;;11.60;99.90;;;;;;4974226;28;20176;-79
2022/12/24 06:20:07;;;;;;;23.10;5.03;;;11.40;99.90;;;;;;4974087;28;20655;-79
2022/12/24 06:22:32;;;;;;;21.65;4.03;;;11.40;99.90;;;;;;4973925;28;20248;-79
2022/12/24 06:24:58;;;;;;;33.90;5.10;;;11.40;99.90;;;;;;4973755;28;20174;-79
2022/12/24 06:27:23;;;;;;;30.92;5.78;;;11.40;99.90;;;;;;4972560;28;20178;-79
2022/12/24 06:29:49;;;;;;;29.45;5.35;;;11.40;99.90;;;;;;4974073;28;20177;-79
2022/12/24 06:32:15;;;;;;;28.95;4.93;;;11.30;99.90;;;;;;4973662;28;20193;-78
2022/12/24 06:34:40;;;;;;;22.30;4.80;;;11.30;99.90;;;;;;4973659;28;20192;-79
2022/12/24 06:37:06;;;;;;;18.30;3.90;;;11.40;99.90;;;;;;4973760;28;20304;-80
2022/12/24 06:39:32;;;;;;;22.83;4.45;;;11.50;99.90;;;;;;4973835;28;20566;-79
2022/12/24 06:41:57;;;;;;;29.45;4.93;;;11.60;99.90;;;;;;4973634;28;20194;-81
2022/12/24 06:44:23;;;;;;;22.60;5.30;;;11.50;99.90;;;;;;4974113;28;20177;-81
2022/12/24 06:46:48;;;;;;;27.90;4.97;;;11.40;99.90;;;;;;4972453;28;20631;-82
2022/12/24 06:49:14;;;;;;;29.20;5.13;;;11.50;99.90;;;;;;4973675;28;20174;-81
2022/12/24 06:51:40;;;;;;;17.60;4.38;;;11.50;99.90;;;;;;4973678;28;20173;-81
2022/12/24 06:54:06;;;;;;;35.75;5.57;;;11.50;99.90;;;;;;4975421;28;20170;-83
2022/12/24 06:56:32;;;;;;;23.27;4.72;;;11.50;99.90;;;;;;4977417;28;20190;-82
2022/12/24 06:58:57;;;;;;;26.40;4.50;;;11.50;99.90;;;;;;4977539;28;20286;-80
2022/12/24 07:01:23;;;;;;;27.52;5.03;;;11.60;99.90;;;;;;4977502;28;20199;-80
2022/12/24 07:03:49;;;;;;;33.60;4.82;;;11.60;99.90;;;;;;4982761;28;20196;-79
2022/12/24 07:06:20;;;;;;;30.38;4.40;;;11.70;99.90;;;;;;4979762;28;20177;-79
2022/12/24 07:08:45;;;;;;;16.40;3.92;;;11.70;99.90;;;;;;4978832;28;20586;-80
2022/12/24 07:11:11;;;;;;;27.75;5.15;;;11.60;99.90;;;;;;4981080;28;20189;-80
2022/12/24 07:13:37;;;;;;;20.77;4.85;;;11.50;99.90;;;;;;4985563;28;20189;-79
2022/12/24 07:16:03;;;;;;;22.55;4.63;;;11.60;99.90;;;;;;4983766;28;20213;-81
2022/12/24 07:18:30;;;;;;;22.50;4.85;;;11.50;99.90;;;;;;4999015;28;20324;-83
2022/12/24 07:20:57;;;;;;;15.10;4.25;;;11.30;99.90;;;;;;4980811;28;20177;-84
2022/12/24 07:23:23;;;;;;;21.67;4.43;;;11.30;99.90;;;;;;4980997;28;20196;-80
2022/12/24 07:25:49;;;;;;;25.95;5.05;;;11.40;99.90;;;;;;4979099;28;20624;-79
2022/12/24 07:28:14;;;;;;;32.40;5.10;;;11.40;99.90;;;;;;4981914;28;20166;-85
2022/12/24 07:30:40;;;;;;;18.10;3.63;;;11.40;99.90;;;;;;4976794;28;20690;-85
2022/12/24 07:33:06;;;;;;;20.15;4.47;;;11.50;99.90;;;;;;4991831;28;20252;-86
2022/12/24 07:35:31;;;;;;;37.40;6.95;;;11.50;99.90;;;;;;4976966;28;20170;-84
2022/12/24 07:37:57;;;;;;;27.98;6.38;;;11.50;99.90;;;;;;4976494;28;20240;-84
2022/12/24 07:40:22;;;;;;;19.65;4.90;;;11.50;99.90;;;;;;4976445;28;20177;-80
2022/12/24 07:42:48;;;;;;;21.35;4.28;;;11.40;99.90;;;;;;4976353;28;20596;-81
2022/12/24 07:45:13;;;;;;;19.10;4.45;;;11.50;99.90;;;;;;4976883;28;20189;-84
2022/12/24 07:47:39;;;;;;;34.42;4.53;;;11.50;99.90;;;;;;4976361;28;20260;-81
2022/12/24 07:50:05;;;;;;;23.45;5.45;;;11.60;99.90;;;;;;4991227;28;20240;-81
2022/12/24 07:52:31;;;;;;;34.85;4.90;;;11.40;99.90;;;;;;4990786;28;20194;-80
2022/12/24 07:54:57;;;;;;;28.13;5.22;;;11.40;99.90;;;;;;4976285;28;20646;-80
2022/12/24 07:57:22;;;;;;;27.77;5.32;;;11.30;99.90;;;;;;4976371;28;20683;-80
2022/12/24 07:59:48;;;;;;;30.48;5.10;;;11.30;99.90;;;;;;4974517;28;20220;-82
2022/12/24 08:02:13;;;;;;;18.40;4.43;;;11.20;99.90;;;;;;4976008;28;20320;-82
2022/12/24 08:04:39;;;;;;;18.40;3.97;;;11.30;99.90;;;;;;4975836;28;20261;-82
2022/12/24 08:07:05;;;;;;;22.80;5.18;;;11.40;99.90;;;;;;4975314;28;20221;-81
2022/12/24 08:09:33;;;;;;;21.15;4.45;;;11.30;99.90;;;;;;4975226;28;20205;-82
2022/12/24 08:12:01;;;;;;;19.67;4.15;;;11.30;99.90;;;;;;4975457;28;20225;-81
2022/12/24 08:14:27;;;;;;;30.33;4.88;;;11.40;99.90;;;;;;4975628;28;20225;-83
2022/12/24 08:16:53;;;;;;;20.33;4.93;;;11.40;99.90;;;;;;4975644;28;20162;-82
2022/12/24 08:19:18;;;;;;;29.67;5.45;;;11.40;99.90;;;;;;4976023;28;20228;-84
2022/12/24 08:21:44;;;;;;;15.60;3.50;;;11.40;99.90;;;;;;4975677;28;20185;-79
2022/12/24 08:24:09;;;;;;;26.40;4.30;;;11.30;99.90;;;;;;4975736;28;20238;-80
2022/12/24 08:26:35;;;;;;;19.08;4.25;;;11.40;99.90;;;;;;4974183;28;20542;-80
2022/12/24 08:29:02;;;;;;;26.77;3.92;;;11.50;99.90;;;;;;4975135;28;20176;-79
2022/12/24 08:31:28;;;;;;;38.33;6.00;;;11.40;99.90;;;;;;4975260;28;20197;-79
2022/12/24 08:33:54;;;;;;;42.15;5.13;;;11.50;99.90;;;;;;4973868;28;20181;-80
2022/12/24 08:36:19;;;;;;;18.13;4.28;;;11.40;99.90;;;;;;4990379;28;20200;-80
2022/12/24 08:38:45;;;;;;;27.15;5.10;;;11.50;99.90;;;;;;4975601;28;20283;-79
2022/12/24 08:41:11;;;;;;;21.15;4.45;;;11.50;99.90;;;;;;4974873;28;20664;-80
2022/12/24 08:43:36;;;;;;;33.53;5.30;;;11.60;99.90;;;;;;4975527;28;20190;-79
2022/12/24 08:46:04;;;;;;;25.88;5.25;;;11.60;99.90;;;;;;4974996;28;20162;-80
2022/12/24 08:48:30;;;;;;;25.88;5.03;;;11.60;99.90;;;;;;4974608;28;20256;-78
2022/12/24 08:50:56;;;;;;;29.75;4.70;;;11.50;99.90;;;;;;4989731;28;20170;-80
2022/12/24 08:53:21;;;;;;;26.52;5.40;;;11.40;99.90;;;;;;4974120;28;20194;-80
2022/12/24 08:55:47;;;;;;;26.25;6.05;;;11.40;99.90;;;;;;4974528;28;20213;-83
2022/12/24 08:58:13;;;;;;;20.90;4.47;;;11.50;99.90;;;;;;4974816;28;20244;-80
2022/12/24 09:00:39;;;;;;;36.67;6.38;;;11.60;99.90;;;;;;4974939;28;20174;-79
2022/12/24 09:03:04;;;;;;;37.17;4.93;;;11.80;99.90;;;;;;4960750;28;20532;-80
2022/12/24 09:05:30;;;;;;;35.10;4.38;;;11.80;99.90;;;;;;4954914;29;20268;-77
2022/12/24 09:07:56;;;;;;;30.73;5.80;;;11.90;99.90;;;;;;4954966;29;20635;-79
2022/12/24 09:10:22;;;;;;;38.55;6.03;;;12.00;99.90;;;;;;4955318;29;20175;-79
2022/12/24 09:12:48;;;;;;;25.48;4.95;;;12.20;99.90;;;;;;4955134;29;20182;-79
2022/12/24 09:15:14;;;;;;;30.25;5.28;;;12.20;99.90;;;;;;4955503;29;20201;-78
2022/12/24 09:17:40;;;;;;;26.85;4.68;;;12.30;99.90;;;;;;4954656;28;20616;-78
2022/12/24 09:20:06;;;;;;;26.75;4.97;;;12.50;99.90;;;;;;4954677;29;20249;-79
2022/12/24 09:22:36;;;;;;;36.78;5.68;;;12.50;99.90;;;;;;4955054;29;20213;-81
2022/12/24 09:25:03;;;;;;;33.03;5.15;;;12.40;99.90;;;;;;4955387;29;20174;-80
2022/12/24 09:27:30;;;;;;;19.45;5.18;;;12.40;99.90;;;;;;4955157;29;20198;-80
2022/12/24 09:29:55;;;;;;;26.98;5.38;;;12.50;99.90;;;;;;4954978;29;20175;-80
2022/12/24 09:32:21;;;;;;;21.25;6.68;;;12.60;99.90;;;;;;4953568;29;20187;-79
2022/12/24 09:34:47;;;;;;;25.70;5.65;;;12.50;99.90;;;;;;4954855;29;20187;-80
2022/12/24 09:37:12;;;;;;;32.20;4.60;;;12.30;99.90;;;;;;4953559;29;20182;-83
2022/12/24 09:39:38;;;;;;;33.42;5.38;;;12.20;99.90;;;;;;4953479;29;20300;-81
2022/12/24 09:42:07;;;;;;;21.58;4.13;;;12.10;99.90;;;;;;4954674;29;20667;-79
2022/12/24 09:45:06;;;;;;;24.48;4.55;;;12.20;99.90;;;;;;4954810;29;20205;-82
2022/12/24 09:47:46;;;;;;;27.08;4.95;;;12.20;99.90;;;;;;4954058;28;20229;-83
2022/12/24 09:50:45;;;;;;;16.60;4.78;;;12.20;99.90;;;;;;4955078;29;20169;-80
2022/12/24 09:53:33;;;;;;;26.13;6.65;;;12.00;99.90;;;;;;4961327;28;20206;-81
2022/12/24 09:56:02;;;;;;;28.92;6.28;;;12.10;99.90;;;;;;4954838;29;20182;-81
2022/12/24 09:58:28;;;;;;;25.15;5.25;;;12.00;99.90;;;;;;4953655;29;20197;-81
2022/12/24 10:00:55;;;;;;;21.02;5.45;;;12.00;99.90;;;;;;4954510;29;20177;-80
2022/12/24 10:03:21;;;;;;;32.60;6.00;;;12.00;99.90;;;;;;4953343;29;20226;-83
2022/12/24 10:06:08;;;;;;;31.02;5.78;;;12.10;99.90;;;;;;4958048;29;20619;-82
2022/12/24 10:09:14;;;;;;;29.20;5.95;;;12.30;99.90;;;;;;4952279;28;20217;-81
2022/12/24 10:11:52;;;;;;;35.20;7.97;;;12.40;99.90;;;;;;4954303;29;20174;-79
2022/12/24 10:14:39;;;;;;;24.38;6.18;;;12.40;99.90;;;;;;4954679;29;20162;-85
2022/12/24 10:17:47;;;;;;;23.23;4.70;;;12.50;99.90;;;;;;4953212;28;20607;-80
2022/12/24 10:20:30;;;;;;;20.55;5.03;;;12.50;99.90;;;;;;4955753;29;20209;-79
2022/12/24 10:23:10;;;;;;;28.60;6.15;;;12.60;99.90;;;;;;4954607;29;20534;-79
2022/12/24 10:26:03;;;;;;;30.15;5.43;;;12.90;99.90;;;;;;4954884;29;20174;-78
2022/12/24 10:28:50;;;;;;;23.70;5.68;;;12.80;99.90;;;;;;4955780;29;20179;-81
2022/12/24 10:31:21;;;;;;;27.50;6.13;;;12.80;99.90;;;;;;4955182;29;20171;-80
2022/12/24 10:33:54;;;;;;;24.92;5.75;;;12.80;99.90;;;;;;4952841;29;20657;-81
2022/12/24 10:36:25;;;;;;;33.28;6.05;;;12.90;99.90;;;;;;4954147;29;20543;-77
2022/12/24 10:38:51;;;;;;;19.80;5.10;;;12.90;99.90;;;;;;4953955;29;20206;-78
2022/12/24 10:41:17;;;;;;;25.10;5.38;;;13.10;99.90;;;;;;4952592;29;20260;-86
2022/12/24 10:43:44;;;;;;;39.38;5.55;;;13.10;99.90;;;;;;4952638;29;20209;-81
2022/12/24 10:46:25;;;;;;;26.75;4.68;;;12.80;99.90;;;;;;4954179;29;20173;-81
2022/12/24 10:48:59;;;;;;;25.20;5.30;;;12.60;99.90;;;;;;4953634;29;20170;-81
2022/12/24 10:51:43;;;;;;;17.20;3.78;;;12.60;99.90;;;;;;4953732;29;20674;-80
2022/12/24 10:54:18;;;;;;;21.08;6.60;;;12.50;99.90;;;;;;4952394;28;20671;-80
2022/12/24 10:56:49;;;;;;;36.60;6.85;;;12.60;99.90;;;;;;4953986;29;20177;-81
2022/12/24 10:59:50;;;;;;;23.13;5.38;;;12.70;99.90;;;;;;4952707;29;20687;-80
2022/12/24 11:02:29;;;;;;;28.13;5.60;;;12.50;99.90;;;;;;4952210;28;20220;-81
2022/12/24 11:04:58;;;;;;;33.78;6.13;;;12.60;99.90;;;;;;4953645;29;20271;-81
2022/12/24 11:07:24;;;;;;;20.23;5.32;;;12.80;99.90;;;;;;4953828;29;20221;-81
2022/12/24 11:10:02;;;;;;;28.08;5.07;;;12.90;99.90;;;;;;4953777;29;20163;-82
2022/12/24 11:12:45;;;;;;;32.60;4.22;;;13.00;99.90;;;;;;4954031;29;20193;-82
2022/12/24 11:15:17;;;;;;;24.27;5.68;;;13.20;99.90;;;;;;4960135;28;20178;-79
2022/12/24 11:17:55;;;;;;;33.78;6.75;;;13.10;99.90;;;;;;4971842;28;20236;-78
2022/12/24 11:20:25;;;;;;;32.10;6.25;;;12.90;99.90;;;;;;4971766;28;20190;-78
2022/12/24 11:22:51;;;;;;;27.60;5.05;;;12.90;99.90;;;;;;4971335;28;20293;-80
2022/12/24 11:25:28;;;;;;;17.20;4.95;;;12.90;99.90;;;;;;4973135;28;20642;-78
2022/12/24 11:27:54;;;;;;;33.78;4.72;;;13.10;99.90;;;;;;4972720;28;20173;-78
2022/12/24 11:30:28;;;;;;;29.20;5.28;;;13.10;99.90;;;;;;4972888;28;20181;-84
2022/12/24 11:32:59;;;;;;;21.63;4.65;;;12.80;99.90;;;;;;4971852;28;20194;-79
2022/12/24 11:35:26;;;;;;;39.15;6.03;;;12.80;99.90;;;;;;4972689;28;20204;-79
2022/12/24 11:38:01;;;;;;;25.20;4.63;;;12.90;99.90;;;;;;4972776;28;20170;-82
2022/12/24 11:40:35;;;;;;;21.20;4.78;;;12.80;99.90;;;;;;4973063;28;20193;-80
2022/12/24 11:43:02;;;;;;;20.73;5.28;;;12.70;99.90;;;;;;4976259;28;20184;-78
2022/12/24 11:45:30;;;;;;;49.35;8.55;;;12.70;99.90;;;;;;4976360;28;20177;-79
2022/12/24 11:47:56;;;;;;;36.35;6.05;;;12.90;99.90;;;;;;4974674;28;20176;-78
2022/12/24 11:50:24;;;;;;;25.38;4.78;;;13.00;99.90;;;;;;4976071;28;20173;-78
2022/12/24 11:53:14;;;;;;;18.27;4.97;;;13.10;99.90;;;;;;4974417;28;20200;-78
2022/12/24 11:55:52;;;;;;;22.75;4.80;;;13.30;99.90;;;;;;4973780;28;20205;-78
2022/12/24 11:58:32;;;;;;;20.73;5.28;;;13.40;99.90;;;;;;4974154;28;20201;-78
2022/12/24 12:01:11;;;;;;;26.05;4.90;;;13.20;99.90;;;;;;4974204;28;20182;-78
2022/12/24 12:03:46;;;;;;;33.20;6.47;;;13.40;99.90;;;;;;4975603;28;20284;-78
2022/12/24 12:06:26;;;;;;;27.17;5.50;;;13.60;99.90;;;;;;4974094;28;20169;-79
2022/12/24 12:08:56;;;;;;;23.63;5.15;;;13.70;99.90;;;;;;4975512;28;20172;-80
2022/12/24 12:11:24;;;;;;;27.95;5.97;;;13.90;99.90;;;;;;4974406;28;20173;-78
2022/12/24 12:13:50;;;;;;;20.05;5.13;;;13.90;99.90;;;;;;4975870;28;20222;-79
2022/12/24 12:16:15;;;;;;;23.38;5.03;;;14.00;99.90;;;;;;4975708;28;20198;-79
2022/12/24 12:18:47;;;;;;;22.90;5.38;;;14.10;99.90;;;;;;4975001;28;20244;-79
2022/12/24 12:21:23;;;;;;;27.67;5.20;;;14.00;99.90;;;;;;4975566;28;20170;-79
2022/12/24 12:23:52;;;;;;;29.42;4.30;;;13.90;99.90;;;;;;4975637;28;20591;-79
2022/12/24 12:26:32;;;;;;;20.08;4.15;;;13.80;99.90;;;;;;4975663;28;20193;-78
2022/12/24 12:29:09;;;;;;;25.65;3.83;;;13.80;99.90;;;;;;4974172;28;20173;-79
2022/12/24 12:31:46;;;;;;;31.73;4.70;;;14.00;99.90;;;;;;4975114;28;20173;-79
2022/12/24 12:34:50;;;;;;;21.70;4.43;;;14.10;99.90;;;;;;4975003;28;20181;-79
2022/12/24 12:37:27;;;;;;;23.52;4.57;;;13.90;99.90;;;;;;4975026;28;20185;-79
2022/12/24 12:39:54;;;;;;;30.83;6.25;;;13.70;99.90;;;;;;4975208;28;20205;-79
2022/12/24 12:42:36;;;;;;;24.73;6.40;;;13.60;99.90;;;;;;4989805;28;20190;-79
2022/12/24 12:45:38;;;;;;;23.15;4.75;;;13.70;99.90;;;;;;4973760;28;20178;-81
2022/12/24 12:48:41;;;;;;;28.65;5.60;;;13.90;99.90;;;;;;4973863;28;20638;-79
2022/12/24 12:51:26;;;;;;;21.60;5.13;;;13.80;99.90;;;;;;4973875;28;20534;-79
2022/12/24 12:54:15;;;;;;;27.92;4.97;;;13.90;99.90;;;;;;4974838;28;20221;-80
2022/12/24 12:56:45;;;;;;;27.52;4.35;;;13.90;99.90;;;;;;4973525;28;20199;-79